Coachella, CA

11:48 PM PDT on July 26, 2016 (GMT -0700)
Terra Lago | | Change Station

Elev 16 ft 33.74 °N, 116.19 °W | Updated 7 seconds ago

Clear
Clear
100.4 °F
Feels Like 96 °F
N
3.1
Wind Variable Wind from NE
Gusts 9.2 mph

Today
High -- | Low -- °F
--% Chance of Precip.
Yesterday
High -- | Low -- °F
Precip. -- in
Pressure 29.70 in
Visibility 10.0 miles
Clouds Clear
Heat Index 96 °F
Dew Point 39 °F
Humidity 12%
Rainfall 0.00 in
Snow Depth Not available.
5:53 AM 7:49 PM
Last Quarter, 46% visible
METAR KTRM 270552Z AUTO 34010KT 10SM CLR 38/10 A2969 RMK AO2 SLP057 T03780100 10439 20356 51020 TSNO
Pressure 29.70 in
Visibility 10.0 miles
Clouds Clear
Heat Index 96 °F
Dew Point 39 °F
Humidity 12%
Rainfall 0.00 in
Snow Depth Not available.
5:53 AM 7:49 PM
Last Quarter, 46% visible
METAR KTRM 270552Z AUTO 34010KT 10SM CLR 38/10 A2969 RMK AO2 SLP057 T03780100 10439 20356 51020 TSNO

10-Day Weather Forecast

Almanac

Astronomy

Jul. 26, 2016 Rise Set
Actual Time
Civil Twilight
Nautical Twilight
Astronomical Twilight
Moon
Length of Visible Light
Length of Day
Tomorrow will be .
, % of the Moon is Illuminated

Today's Extremes

State Highs State Lows

Community

WunderPhotos

Upload Photos

1,927,818 photos uploaded!

WunderBlog® & News

Nearby

Air Quality

  Air Quality AQ Index Pollutant
Not available.

Snow Depth

Station Depth Elevation

Earthquake Activity

City Distance Mag. Time & Date
Minimum magnitude displayed is 2.5.

Coastal Water Temperatures

Place Temperature

Stations

Nearby Weather Stations

Station Location Temp. Windchill Dew Point Humidity Wind Precip. Elev Updated Type
                   

Watches & Warnings

There are currently no watches in effect.